sensor_id;sensor_type;location;lat;lon;timestamp;pressure;altitude;pressure_sealevel;temperature;humidity
74552;BME280;63025;55.472;38.432;2023-09-19T00:01:40;100827.56;;;8.69;100.00
74552;BME280;63025;55.472;38.432;2023-09-19T00:04:13;100818.50;;;8.70;100.00
74552;BME280;63025;55.472;38.432;2023-09-19T00:06:43;100816.84;;;8.69;100.00
74552;BME280;63025;55.472;38.432;2023-09-19T00:09:10;100823.19;;;8.68;100.00
74552;BME280;63025;55.472;38.432;2023-09-19T00:11:37;100808.84;;;8.61;100.00
74552;BME280;63025;55.472;38.432;2023-09-19T00:14:04;100802.91;;;8.51;100.00
74552;BME280;63025;55.472;38.432;2023-09-19T00:16:33;100809.28;;;8.42;100.00
74552;BME280;63025;55.472;38.432;2023-09-19T00:18:59;100812.50;;;8.37;100.00
74552;BME280;63025;55.472;38.432;2023-09-19T00:21:31;100808.69;;;8.32;100.00
74552;BME280;63025;55.472;38.432;2023-09-19T00:23:58;100812.88;;;8.26;100.00
74552;BME280;63025;55.472;38.432;2023-09-19T00:26:24;100814.06;;;8.24;100.00
74552;BME280;63025;55.472;38.432;2023-09-19T00:28:55;100817.44;;;8.18;100.00
74552;BME280;63025;55.472;38.432;2023-09-19T00:31:24;100810.97;;;8.04;100.00
74552;BME280;63025;55.472;38.432;2023-09-19T00:33:58;100817.66;;;8.00;100.00
74552;BME280;63025;55.472;38.432;2023-09-19T00:36:25;100812.16;;;8.01;100.00
74552;BME280;63025;55.472;38.432;2023-09-19T00:38:56;100815.00;;;8.00;100.00
74552;BME280;63025;55.472;38.432;2023-09-19T00:41:22;100820.00;;;8.03;100.00
74552;BME280;63025;55.472;38.432;2023-09-19T00:43:52;100818.84;;;8.05;100.00
74552;BME280;63025;55.472;38.432;2023-09-19T00:46:19;100822.69;;;8.03;100.00
74552;BME280;63025;55.472;38.432;2023-09-19T00:48:45;100819.16;;;8.02;100.00
74552;BME280;63025;55.472;38.432;2023-09-19T00:51:12;100823.53;;;8.03;100.00
74552;BME280;63025;55.472;38.432;2023-09-19T00:53:42;100824.88;;;7.99;100.00
74552;BME280;63025;55.472;38.432;2023-09-19T00:56:12;100828.91;;;7.95;100.00
74552;BME280;63025;55.472;38.432;2023-09-19T00:58:39;100828.41;;;7.92;100.00
74552;BME280;63025;55.472;38.432;2023-09-19T01:01:06;100824.72;;;7.93;100.00
74552;BME280;63025;55.472;38.432;2023-09-19T01:03:36;100831.25;;;7.98;100.00
74552;BME280;63025;55.472;38.432;2023-09-19T01:06:07;100819.16;;;8.02;100.00
74552;BME280;63025;55.472;38.432;2023-09-19T01:08:37;100828.38;;;8.08;100.00
74552;BME280;63025;55.472;38.432;2023-09-19T01:13:58;100826.81;;;8.14;100.00
74552;BME280;63025;55.472;38.432;2023-09-19T01:19:15;100825.97;;;8.13;100.00
74552;BME280;63025;55.472;38.432;2023-09-19T01:27:59;100825.16;;;8.13;100.00
74552;BME280;63025;55.472;38.432;2023-09-19T01:30:35;100817.78;;;8.15;100.00
74552;BME280;63025;55.472;38.432;2023-09-19T01:33:15;100825.94;;;8.21;100.00
74552;BME280;63025;55.472;38.432;2023-09-19T01:35:45;100821.56;;;8.28;100.00
74552;BME280;63025;55.472;38.432;2023-09-19T01:38:14;100820.72;;;8.36;100.00
74552;BME280;63025;55.472;38.432;2023-09-19T01:40:46;100817.69;;;8.39;100.00
74552;BME280;63025;55.472;38.432;2023-09-19T01:43:25;100813.47;;;8.44;100.00
74552;BME280;63025;55.472;38.432;2023-09-19T01:51:34;100804.19;;;8.55;100.00
74552;BME280;63025;55.472;38.432;2023-09-19T01:54:06;100809.19;;;8.58;100.00
74552;BME280;63025;55.472;38.432;2023-09-19T01:56:40;100813.84;;;8.64;100.00
74552;BME280;63025;55.472;38.432;2023-09-19T01:59:17;100800.59;;;8.71;100.00
74552;BME280;63025;55.472;38.432;2023-09-19T02:01:48;100809.91;;;8.75;100.00
74552;BME280;63025;55.472;38.432;2023-09-19T02:04:15;100808.91;;;8.76;100.00
74552;BME280;63025;55.472;38.432;2023-09-19T02:06:41;100804.69;;;8.81;100.00
74552;BME280;63025;55.472;38.432;2023-09-19T02:09:11;100795.81;;;8.81;100.00
74552;BME280;63025;55.472;38.432;2023-09-19T02:11:37;100798.94;;;8.84;100.00
74552;BME280;63025;55.472;38.432;2023-09-19T02:14:04;100799.91;;;8.92;100.00
74552;BME280;63025;55.472;38.432;2023-09-19T02:16:35;100805.56;;;8.97;100.00
74552;BME280;63025;55.472;38.432;2023-09-19T02:19:01;100817.22;;;9.04;100.00
74552;BME280;63025;55.472;38.432;2023-09-19T02:21:31;100808.47;;;9.10;100.00
74552;BME280;63025;55.472;38.432;2023-09-19T02:23:58;100811.63;;;9.13;100.00
74552;BME280;63025;55.472;38.432;2023-09-19T02:26:25;100806.53;;;9.18;100.00
74552;BME280;63025;55.472;38.432;2023-09-19T02:28:51;100809.03;;;9.20;100.00
74552;BME280;63025;55.472;38.432;2023-09-19T02:31:17;100807.47;;;9.26;100.00
74552;BME280;63025;55.472;38.432;2023-09-19T02:33:43;100800.56;;;9.31;100.00
74552;BME280;63025;55.472;38.432;2023-09-19T02:36:09;100807.22;;;9.35;100.00
74552;BME280;63025;55.472;38.432;2023-09-19T02:38:35;100810.19;;;9.40;100.00
74552;BME280;63025;55.472;38.432;2023-09-19T02:41:01;100809.84;;;9.43;100.00
74552;BME280;63025;55.472;38.432;2023-09-19T02:43:27;100810.47;;;9.45;100.00
74552;BME280;63025;55.472;38.432;2023-09-19T02:45:53;100807.06;;;9.51;100.00
74552;BME280;63025;55.472;38.432;2023-09-19T02:48:20;100802.63;;;9.58;100.00
74552;BME280;63025;55.472;38.432;2023-09-19T02:50:49;100789.94;;;9.52;100.00
74552;BME280;63025;55.472;38.432;2023-09-19T02:53:15;100804.28;;;9.60;100.00
74552;BME280;63025;55.472;38.432;2023-09-19T02:55:42;100807.25;;;9.65;100.00
74552;BME280;63025;55.472;38.432;2023-09-19T02:58:09;100793.63;;;9.66;100.00
74552;BME280;63025;55.472;38.432;2023-09-19T03:00:37;100810.50;;;9.75;100.00
74552;BME280;63025;55.472;38.432;2023-09-19T03:03:03;100805.03;;;9.68;100.00
74552;BME280;63025;55.472;38.432;2023-09-19T03:05:32;100800.66;;;9.67;100.00
74552;BME280;63025;55.472;38.432;2023-09-19T03:07:58;100791.78;;;9.67;100.00
74552;BME280;63025;55.472;38.432;2023-09-19T03:10:27;100795.47;;;9.66;100.00
74552;BME280;63025;55.472;38.432;2023-09-19T03:12:56;100788.66;;;9.63;100.00
74552;BME280;63025;55.472;38.432;2023-09-19T03:15:22;100790.03;;;9.59;100.00
74552;BME280;63025;55.472;38.432;2023-09-19T03:17:50;100797.59;;;9.55;100.00
74552;BME280;63025;55.472;38.432;2023-09-19T03:20:21;100790.13;;;9.51;100.00
74552;BME280;63025;55.472;38.432;2023-09-19T03:22:50;100796.31;;;9.51;100.00
74552;BME280;63025;55.472;38.432;2023-09-19T03:25:16;100798.19;;;9.51;100.00
74552;BME280;63025;55.472;38.432;2023-09-19T03:27:46;100798.44;;;9.41;100.00
74552;BME280;63025;55.472;38.432;2023-09-19T03:30:13;100789.91;;;9.38;100.00
74552;BME280;63025;55.472;38.432;2023-09-19T03:32:48;100791.13;;;9.35;100.00
74552;BME280;63025;55.472;38.432;2023-09-19T03:35:16;100796.88;;;9.32;100.00
74552;BME280;63025;55.472;38.432;2023-09-19T03:37:43;100796.22;;;9.30;100.00
74552;BME280;63025;55.472;38.432;2023-09-19T03:40:10;100796.88;;;9.32;100.00
74552;BME280;63025;55.472;38.432;2023-09-19T03:42:41;100806.59;;;9.33;100.00
74552;BME280;63025;55.472;38.432;2023-09-19T03:45:10;100803.25;;;9.31;100.00
74552;BME280;63025;55.472;38.432;2023-09-19T03:47:41;100810.94;;;9.34;100.00
74552;BME280;63025;55.472;38.432;2023-09-19T03:50:09;100798.97;;;9.37;100.00
74552;BME280;63025;55.472;38.432;2023-09-19T03:52:41;100803.50;;;9.36;100.00
74552;BME280;63025;55.472;38.432;2023-09-19T03:55:08;100807.22;;;9.35;100.00
74552;BME280;63025;55.472;38.432;2023-09-19T03:57:37;100806.19;;;9.36;100.00
74552;BME280;63025;55.472;38.432;2023-09-19T04:00:04;100809.72;;;9.37;100.00
74552;BME280;63025;55.472;38.432;2023-09-19T04:02:40;100812.88;;;9.40;100.00
74552;BME280;63025;55.472;38.432;2023-09-19T04:05:07;100806.13;;;9.44;100.00
74552;BME280;63025;55.472;38.432;2023-09-19T04:07:35;100816.78;;;9.52;100.00
74552;BME280;63025;55.472;38.432;2023-09-19T04:10:00;100816.50;;;9.62;100.00
74552;BME280;63025;55.472;38.432;2023-09-19T04:12:30;100818.16;;;9.78;100.00
74552;BME280;63025;55.472;38.432;2023-09-19T04:14:56;100816.69;;;9.90;100.00
74552;BME280;63025;55.472;38.432;2023-09-19T04:17:22;100811.50;;;10.03;100.00
74552;BME280;63025;55.472;38.432;2023-09-19T04:19:49;100803.97;;;10.13;100.00
74552;BME280;63025;55.472;38.432;2023-09-19T04:22:15;100801.88;;;10.23;100.00
74552;BME280;63025;55.472;38.432;2023-09-19T04:24:40;100805.91;;;10.34;100.00
74552;BME280;63025;55.472;38.432;2023-09-19T04:27:06;100798.38;;;10.44;100.00
74552;BME280;63025;55.472;38.432;2023-09-19T04:29:33;100810.78;;;10.45;100.00
74552;BME280;63025;55.472;38.432;2023-09-19T04:31:59;100806.50;;;10.51;100.00
74552;BME280;63025;55.472;38.432;2023-09-19T04:34:24;100812.72;;;10.51;100.00
74552;BME280;63025;55.472;38.432;2023-09-19T04:36:51;100806.78;;;10.56;100.00
74552;BME280;63025;55.472;38.432;2023-09-19T04:39:16;100801.84;;;10.59;100.00
74552;BME280;63025;55.472;38.432;2023-09-19T04:41:43;100793.66;;;10.68;100.00
74552;BME280;63025;55.472;38.432;2023-09-19T04:44:10;100795.13;;;10.70;100.00
74552;BME280;63025;55.472;38.432;2023-09-19T04:46:36;100792.19;;;10.65;100.00
74552;BME280;63025;55.472;38.432;2023-09-19T04:49:02;100780.84;;;10.70;100.00
74552;BME280;63025;55.472;38.432;2023-09-19T04:51:28;100777.47;;;10.61;100.00
74552;BME280;63025;55.472;38.432;2023-09-19T04:54:00;100774.13;;;10.59;100.00
74552;BME280;63025;55.472;38.432;2023-09-19T04:56:26;100771.72;;;10.64;100.00
74552;BME280;63025;55.472;38.432;2023-09-19T04:58:54;100754.88;;;10.77;100.00
74552;BME280;63025;55.472;38.432;2023-09-19T05:01:20;100758.50;;;10.90;100.00
74552;BME280;63025;55.472;38.432;2023-09-19T05:03:49;100765.47;;;11.06;100.00
74552;BME280;63025;55.472;38.432;2023-09-19T05:06:21;100777.09;;;11.13;100.00
74552;BME280;63025;55.472;38.432;2023-09-19T05:08:48;100768.13;;;11.27;100.00
74552;BME280;63025;55.472;38.432;2023-09-19T05:11:21;100768.56;;;11.31;100.00
74552;BME280;63025;55.472;38.432;2023-09-19T05:13:49;100773.38;;;11.42;100.00
74552;BME280;63025;55.472;38.432;2023-09-19T05:16:21;100770.28;;;11.45;100.00
74552;BME280;63025;55.472;38.432;2023-09-19T05:18:47;100765.22;;;11.63;100.00
74552;BME280;63025;55.472;38.432;2023-09-19T05:21:15;100765.47;;;11.68;100.00
74552;BME280;63025;55.472;38.432;2023-09-19T05:23:41;100770.59;;;11.63;100.00
74552;BME280;63025;55.472;38.432;2023-09-19T05:26:08;100772.13;;;11.72;100.00
74552;BME280;63025;55.472;38.432;2023-09-19T05:28:34;100767.34;;;11.68;100.00
74552;BME280;63025;55.472;38.432;2023-09-19T05:31:03;100768.38;;;11.73;100.00
74552;BME280;63025;55.472;38.432;2023-09-19T05:33:29;100775.44;;;11.74;100.00
74552;BME280;63025;55.472;38.432;2023-09-19T05:35:56;100766.59;;;11.81;100.00
74552;BME280;63025;55.472;38.432;2023-09-19T05:38:22;100766.69;;;11.94;100.00
74552;BME280;63025;55.472;38.432;2023-09-19T05:40:49;100773.13;;;12.06;100.00
74552;BME280;63025;55.472;38.432;2023-09-19T05:43:15;100775.22;;;12.04;100.00
74552;BME280;63025;55.472;38.432;2023-09-19T05:45:41;100776.06;;;12.11;100.00
74552;BME280;63025;55.472;38.432;2023-09-19T05:48:16;100778.19;;;12.22;100.00
74552;BME280;63025;55.472;38.432;2023-09-19T05:50:42;100775.88;;;12.12;100.00
74552;BME280;63025;55.472;38.432;2023-09-19T05:53:09;100772.72;;;12.09;100.00
74552;BME280;63025;55.472;38.432;2023-09-19T05:55:38;100762.19;;;12.14;100.00
74552;BME280;63025;55.472;38.432;2023-09-19T05:58:04;100757.19;;;12.11;100.00
74552;BME280;63025;55.472;38.432;2023-09-19T06:00:30;100750.78;;;12.12;100.00
74552;BME280;63025;55.472;38.432;2023-09-19T06:02:58;100758.88;;;12.12;100.00
74552;BME280;63025;55.472;38.432;2023-09-19T06:05:25;100754.13;;;12.27;100.00
74552;BME280;63025;55.472;38.432;2023-09-19T06:07:58;100755.84;;;12.35;100.00
74552;BME280;63025;55.472;38.432;2023-09-19T06:10:26;100753.34;;;12.40;100.00
74552;BME280;63025;55.472;38.432;2023-09-19T06:12:54;100761.88;;;12.50;100.00
74552;BME280;63025;55.472;38.432;2023-09-19T06:15:21;100766.00;;;12.39;100.00
74552;BME280;63025;55.472;38.432;2023-09-19T06:17:52;100763.72;;;12.49;100.00
74552;BME280;63025;55.472;38.432;2023-09-19T06:20:23;100764.38;;;12.58;100.00
74552;BME280;63025;55.472;38.432;2023-09-19T06:22:51;100757.97;;;12.66;100.00
74552;BME280;63025;55.472;38.432;2023-09-19T06:25:17;100744.69;;;12.71;100.00
74552;BME280;63025;55.472;38.432;2023-09-19T06:27:51;100749.47;;;12.82;100.00
74552;BME280;63025;55.472;38.432;2023-09-19T06:30:20;100745.53;;;12.91;100.00
74552;BME280;63025;55.472;38.432;2023-09-19T06:32:47;100745.31;;;13.12;100.00
74552;BME280;63025;55.472;38.432;2023-09-19T06:35:15;100739.72;;;13.34;100.00
74552;BME280;63025;55.472;38.432;2023-09-19T06:37:42;100740.53;;;13.47;100.00
74552;BME280;63025;55.472;38.432;2023-09-19T06:40:11;100736.72;;;13.68;100.00
74552;BME280;63025;55.472;38.432;2023-09-19T06:42:45;100729.38;;;13.82;100.00
74552;BME280;63025;55.472;38.432;2023-09-19T06:45:12;100732.69;;;13.90;100.00
74552;BME280;63025;55.472;38.432;2023-09-19T06:47:39;100734.53;;;13.96;100.00
74552;BME280;63025;55.472;38.432;2023-09-19T06:50:06;100734.44;;;14.16;100.00
74552;BME280;63025;55.472;38.432;2023-09-19T06:52:35;100735.16;;;14.37;100.00
74552;BME280;63025;55.472;38.432;2023-09-19T06:55:00;100733.03;;;14.52;100.00
74552;BME280;63025;55.472;38.432;2023-09-19T06:57:30;100732.19;;;14.51;100.00
74552;BME280;63025;55.472;38.432;2023-09-19T06:59:56;100717.50;;;14.65;100.00
74552;BME280;63025;55.472;38.432;2023-09-19T07:02:22;100724.09;;;14.76;100.00
74552;BME280;63025;55.472;38.432;2023-09-19T07:04:48;100726.22;;;14.74;100.00
74552;BME280;63025;55.472;38.432;2023-09-19T07:07:15;100724.75;;;14.96;100.00
74552;BME280;63025;55.472;38.432;2023-09-19T07:09:41;100726.97;;;15.06;100.00
74552;BME280;63025;55.472;38.432;2023-09-19T07:12:08;100727.06;;;15.18;100.00
74552;BME280;63025;55.472;38.432;2023-09-19T07:14:33;100721.31;;;15.32;100.00
74552;BME280;63025;55.472;38.432;2023-09-19T07:16:59;100722.97;;;15.52;100.00
74552;BME280;63025;55.472;38.432;2023-09-19T07:19:26;100728.88;;;15.85;100.00
74552;BME280;63025;55.472;38.432;2023-09-19T07:21:54;100723.38;;;16.22;100.00
74552;BME280;63025;55.472;38.432;2023-09-19T07:24:20;100722.00;;;16.31;100.00
74552;BME280;63025;55.472;38.432;2023-09-19T07:26:48;100727.34;;;16.67;100.00
74552;BME280;63025;55.472;38.432;2023-09-19T07:29:14;100720.66;;;17.16;100.00
74552;BME280;63025;55.472;38.432;2023-09-19T07:31:40;100722.31;;;17.06;100.00
74552;BME280;63025;55.472;38.432;2023-09-19T07:34:07;100726.34;;;16.92;100.00
74552;BME280;63025;55.472;38.432;2023-09-19T07:36:34;100725.50;;;17.26;100.00
74552;BME280;63025;55.472;38.432;2023-09-19T07:39:02;100720.69;;;18.60;100.00
74552;BME280;63025;55.472;38.432;2023-09-19T07:41:33;100721.38;;;18.67;100.00
74552;BME280;63025;55.472;38.432;2023-09-19T07:43:59;100723.50;;;20.14;100.00
74552;BME280;63025;55.472;38.432;2023-09-19T07:46:25;100727.97;;;20.25;100.00
74552;BME280;63025;55.472;38.432;2023-09-19T07:48:52;100719.44;;;19.95;100.00
74552;BME280;63025;55.472;38.432;2023-09-19T07:51:17;100721.00;;;20.34;100.00
74552;BME280;63025;55.472;38.432;2023-09-19T07:53:43;100717.63;;;20.00;100.00
74552;BME280;63025;55.472;38.432;2023-09-19T07:56:10;100703.19;;;19.23;100.00
74552;BME280;63025;55.472;38.432;2023-09-19T07:58:39;100699.09;;;18.87;100.00
74552;BME280;63025;55.472;38.432;2023-09-19T08:01:07;100689.84;;;18.71;100.00
74552;BME280;63025;55.472;38.432;2023-09-19T08:03:34;100689.41;;;18.79;100.00
74552;BME280;63025;55.472;38.432;2023-09-19T08:06:00;100693.41;;;18.88;100.00
74552;BME280;63025;55.472;38.432;2023-09-19T08:08:27;100692.13;;;19.13;100.00
74552;BME280;63025;55.472;38.432;2023-09-19T08:10:54;100690.81;;;18.82;100.00
74552;BME280;63025;55.472;38.432;2023-09-19T08:13:25;100692.03;;;19.85;100.00
74552;BME280;63025;55.472;38.432;2023-09-19T08:15:52;100680.47;;;20.48;100.00
74552;BME280;63025;55.472;38.432;2023-09-19T08:18:20;100686.25;;;21.73;100.00
74552;BME280;63025;55.472;38.432;2023-09-19T08:20:50;100685.97;;;22.62;100.00
74552;BME280;63025;55.472;38.432;2023-09-19T08:23:16;100694.75;;;21.76;100.00
74552;BME280;63025;55.472;38.432;2023-09-19T08:25:47;100690.19;;;21.35;100.00
74552;BME280;63025;55.472;38.432;2023-09-19T08:28:12;100694.69;;;20.82;100.00
74552;BME280;63025;55.472;38.432;2023-09-19T08:30:43;100689.56;;;20.59;100.00
74552;BME280;63025;55.472;38.432;2023-09-19T08:33:09;100686.28;;;20.30;100.00
74552;BME280;63025;55.472;38.432;2023-09-19T08:35:36;100679.66;;;19.99;100.00
74552;BME280;63025;55.472;38.432;2023-09-19T08:38:03;100675.66;;;20.06;100.00
74552;BME280;63025;55.472;38.432;2023-09-19T08:40:30;100671.34;;;20.37;100.00
74552;BME280;63025;55.472;38.432;2023-09-19T08:42:59;100673.00;;;20.38;100.00
74552;BME280;63025;55.472;38.432;2023-09-19T08:45:26;100676.84;;;20.15;100.00
74552;BME280;63025;55.472;38.432;2023-09-19T08:50:39;100665.28;;;19.82;100.00
74552;BME280;63025;55.472;38.432;2023-09-19T08:53:11;100674.13;;;19.94;100.00
74552;BME280;63025;55.472;38.432;2023-09-19T08:55:40;100667.13;;;20.51;100.00
74552;BME280;63025;55.472;38.432;2023-09-19T08:58:12;100665.66;;;20.71;100.00
74552;BME280;63025;55.472;38.432;2023-09-19T09:00:48;100659.31;;;20.65;100.00
74552;BME280;63025;55.472;38.432;2023-09-19T09:03:16;100667.78;;;20.64;100.00
74552;BME280;63025;55.472;38.432;2023-09-19T09:05:45;100658.53;;;20.70;100.00
74552;BME280;63025;55.472;38.432;2023-09-19T09:08:13;100656.69;;;20.75;100.00
74552;BME280;63025;55.472;38.432;2023-09-19T09:10:39;100653.72;;;20.87;100.00
74552;BME280;63025;55.472;38.432;2023-09-19T09:13:06;100653.22;;;20.90;100.00
74552;BME280;63025;55.472;38.432;2023-09-19T09:15:35;100648.00;;;20.83;100.00
74552;BME280;63025;55.472;38.432;2023-09-19T09:18:02;100647.66;;;20.43;100.00
74552;BME280;63025;55.472;38.432;2023-09-19T09:20:28;100636.66;;;20.65;100.00
74552;BME280;63025;55.472;38.432;2023-09-19T09:22:55;100634.00;;;20.75;100.00
74552;BME280;63025;55.472;38.432;2023-09-19T09:25:51;100636.47;;;21.76;100.00
74552;BME280;63025;55.472;38.432;2023-09-19T09:28:29;100639.06;;;22.28;100.00
74552;BME280;63025;55.472;38.432;2023-09-19T09:30:57;100633.03;;;22.11;100.00
74552;BME280;63025;55.472;38.432;2023-09-19T09:33:34;100626.06;;;21.73;100.00
74552;BME280;63025;55.472;38.432;2023-09-19T09:36:02;100626.56;;;21.12;100.00
74552;BME280;63025;55.472;38.432;2023-09-19T09:38:43;100630.78;;;20.88;100.00
74552;BME280;63025;55.472;38.432;2023-09-19T09:41:10;100623.91;;;20.75;100.00
74552;BME280;63025;55.472;38.432;2023-09-19T09:43:41;100616.97;;;20.63;100.00
74552;BME280;63025;55.472;38.432;2023-09-19T09:46:16;100619.63;;;20.52;100.00
74552;BME280;63025;55.472;38.432;2023-09-19T09:51:41;100614.16;;;20.52;100.00
74552;BME280;63025;55.472;38.432;2023-09-19T09:54:24;100617.09;;;20.46;100.00
74552;BME280;63025;55.472;38.432;2023-09-19T09:56:56;100612.97;;;20.75;100.00
74552;BME280;63025;55.472;38.432;2023-09-19T09:59:58;100614.97;;;20.53;100.00
74552;BME280;63025;55.472;38.432;2023-09-19T10:02:41;100620.25;;;20.65;100.00
74552;BME280;63025;55.472;38.432;2023-09-19T10:05:25;100617.72;;;20.53;100.00
74552;BME280;63025;55.472;38.432;2023-09-19T10:08:12;100616.31;;;20.50;100.00
74552;BME280;63025;55.472;38.432;2023-09-19T10:10:39;100618.41;;;20.38;100.00
74552;BME280;63025;55.472;38.432;2023-09-19T10:13:10;100616.97;;;20.63;100.00
74552;BME280;63025;55.472;38.432;2023-09-19T10:15:47;100614.66;;;21.29;100.00
74552;BME280;63025;55.472;38.432;2023-09-19T10:18:23;100613.84;;;22.01;100.00
74552;BME280;63025;55.472;38.432;2023-09-19T10:20:49;100625.31;;;23.24;100.00
74552;BME280;63025;55.472;38.432;2023-09-19T10:23:18;100603.47;;;24.51;100.00
74552;BME280;63025;55.472;38.432;2023-09-19T10:25:53;100602.44;;;25.53;100.00
74552;BME280;63025;55.472;38.432;2023-09-19T10:28:20;100591.75;;;26.26;100.00
74552;BME280;63025;55.472;38.432;2023-09-19T10:30:49;100602.47;;;26.47;100.00
74552;BME280;63025;55.472;38.432;2023-09-19T10:33:20;100595.09;;;26.23;96.24
74552;BME280;63025;55.472;38.432;2023-09-19T10:35:51;100583.94;;;25.96;96.45
74552;BME280;63025;55.472;38.432;2023-09-19T10:38:23;100604.41;;;26.46;93.95
74552;BME280;63025;55.472;38.432;2023-09-19T10:40:53;100589.38;;;25.82;91.43
74552;BME280;63025;55.472;38.432;2023-09-19T10:43:21;100586.84;;;25.43;96.06
74552;BME280;63025;55.472;38.432;2023-09-19T10:45:50;100584.41;;;25.42;98.67
74552;BME280;63025;55.472;38.432;2023-09-19T10:48:19;100582.19;;;25.20;100.00
74552;BME280;63025;55.472;38.432;2023-09-19T10:50:50;100591.19;;;25.26;100.00
74552;BME280;63025;55.472;38.432;2023-09-19T10:53:17;100587.75;;;24.86;100.00
74552;BME280;63025;55.472;38.432;2023-09-19T10:55:53;100583.94;;;25.11;100.00
74552;BME280;63025;55.472;38.432;2023-09-19T10:58:26;100581.34;;;25.43;100.00
74552;BME280;63025;55.472;38.432;2023-09-19T11:00:56;100575.59;;;25.64;100.00
74552;BME280;63025;55.472;38.432;2023-09-19T11:03:23;100570.25;;;25.72;96.50
74552;BME280;63025;55.472;38.432;2023-09-19T11:08:57;100561.16;;;26.74;89.79
74552;BME280;63025;55.472;38.432;2023-09-19T11:11:44;100553.28;;;26.16;90.43
74552;BME280;63025;55.472;38.432;2023-09-19T11:30:36;100543.66;;;27.97;70.48
74552;BME280;63025;55.472;38.432;2023-09-19T11:33:29;100547.78;;;27.50;71.09
74552;BME280;63025;55.472;38.432;2023-09-19T11:36:10;100550.53;;;26.67;72.94
74552;BME280;63025;55.472;38.432;2023-09-19T11:41:39;100555.69;;;25.48;89.11
74552;BME280;63025;55.472;38.432;2023-09-19T11:46:32;100553.41;;;24.83;99.70
74552;BME280;63025;55.472;38.432;2023-09-19T11:49:06;100548.00;;;25.02;100.00
74552;BME280;63025;55.472;38.432;2023-09-19T11:51:43;100547.00;;;24.64;100.00
74552;BME280;63025;55.472;38.432;2023-09-19T11:54:12;100547.88;;;24.31;100.00
74552;BME280;63025;55.472;38.432;2023-09-19T11:59:11;100543.75;;;23.94;100.00
74552;BME280;63025;55.472;38.432;2023-09-19T12:01:51;100543.28;;;23.82;100.00
74552;BME280;63025;55.472;38.432;2023-09-19T12:04:43;100535.09;;;23.72;100.00
74552;BME280;63025;55.472;38.432;2023-09-19T12:07:14;100525.69;;;23.83;100.00
74552;BME280;63025;55.472;38.432;2023-09-19T12:09:43;100526.81;;;23.82;100.00
74552;BME280;63025;55.472;38.432;2023-09-19T12:12:10;100525.50;;;23.74;100.00
74552;BME280;63025;55.472;38.432;2023-09-19T12:14:41;100510.84;;;23.40;100.00
74552;BME280;63025;55.472;38.432;2023-09-19T12:17:08;100507.88;;;23.26;100.00
74552;BME280;63025;55.472;38.432;2023-09-19T12:19:34;100499.16;;;23.24;100.00
74552;BME280;63025;55.472;38.432;2023-09-19T12:22:01;100507.50;;;22.94;100.00
74552;BME280;63025;55.472;38.432;2023-09-19T12:24:32;100504.31;;;22.51;100.00
74552;BME280;63025;55.472;38.432;2023-09-19T12:27:05;100498.25;;;22.59;100.00
74552;BME280;63025;55.472;38.432;2023-09-19T12:29:44;100497.94;;;22.66;100.00
74552;BME280;63025;55.472;38.432;2023-09-19T12:32:10;100495.78;;;22.63;100.00
74552;BME280;63025;55.472;38.432;2023-09-19T12:34:36;100490.59;;;22.56;100.00
74552;BME280;63025;55.472;38.432;2023-09-19T12:37:12;100484.84;;;22.53;100.00
74552;BME280;63025;55.472;38.432;2023-09-19T12:39:42;100483.50;;;22.40;100.00
74552;BME280;63025;55.472;38.432;2023-09-19T12:42:12;100486.28;;;22.10;100.00
74552;BME280;63025;55.472;38.432;2023-09-19T12:44:43;100484.06;;;21.76;100.00
74552;BME280;63025;55.472;38.432;2023-09-19T12:47:17;100476.91;;;21.80;100.00
74552;BME280;63025;55.472;38.432;2023-09-19T12:52:41;100473.34;;;21.59;100.00
74552;BME280;63025;55.472;38.432;2023-09-19T12:55:07;100478.56;;;21.66;100.00
74552;BME280;63025;55.472;38.432;2023-09-19T12:57:34;100466.53;;;21.67;100.00
74552;BME280;63025;55.472;38.432;2023-09-19T13:00:04;100467.59;;;21.61;100.00
74552;BME280;63025;55.472;38.432;2023-09-19T13:02:32;100466.25;;;21.64;100.00
74552;BME280;63025;55.472;38.432;2023-09-19T13:04:58;100475.81;;;21.61;100.00
74552;BME280;63025;55.472;38.432;2023-09-19T13:07:45;100473.59;;;21.43;100.00
74552;BME280;63025;55.472;38.432;2023-09-19T13:10:15;100462.34;;;21.24;100.00
74552;BME280;63025;55.472;38.432;2023-09-19T13:12:43;100469.72;;;21.29;100.00
74552;BME280;63025;55.472;38.432;2023-09-19T13:15:15;100470.84;;;21.28;100.00
74552;BME280;63025;55.472;38.432;2023-09-19T13:17:47;100466.66;;;21.10;100.00
74552;BME280;63025;55.472;38.432;2023-09-19T13:20:40;100467.22;;;21.17;100.00
74552;BME280;63025;55.472;38.432;2023-09-19T13:23:27;100470.22;;;21.15;100.00
74552;BME280;63025;55.472;38.432;2023-09-19T13:25:52;100457.94;;;21.18;100.00
74552;BME280;63025;55.472;38.432;2023-09-19T13:28:18;100464.22;;;21.18;100.00
74552;BME280;63025;55.472;38.432;2023-09-19T13:30:44;100451.63;;;21.12;100.00
74552;BME280;63025;55.472;38.432;2023-09-19T13:33:11;100449.97;;;21.06;100.00
74552;BME280;63025;55.472;38.432;2023-09-19T13:35:39;100451.31;;;21.04;100.00
74552;BME280;63025;55.472;38.432;2023-09-19T13:38:08;100450.72;;;20.86;100.00